sensor_id;sensor_type;location;lat;lon;timestamp;pressure;altitude;pressure_sealevel;temperature;humidity
61035;BME280;46916;40.564;-7.958;2023-04-30T00:00:37;97820.59;;;18.11;69.69
61035;BME280;46916;40.564;-7.958;2023-04-30T00:02:38;97820.59;;;18.11;69.63
61035;BME280;46916;40.564;-7.958;2023-04-30T00:04:38;97821.41;;;18.11;69.59
61035;BME280;46916;40.564;-7.958;2023-04-30T00:06:39;97814.47;;;18.10;69.63
61035;BME280;46916;40.564;-7.958;2023-04-30T00:08:40;97822.59;;;18.09;69.70
61035;BME280;46916;40.564;-7.958;2023-04-30T00:10:41;97821.91;;;18.06;69.76
61035;BME280;46916;40.564;-7.958;2023-04-30T00:12:41;97814.47;;;18.02;69.84
61035;BME280;46916;40.564;-7.958;2023-04-30T00:14:42;97819.78;;;18.02;69.95
61035;BME280;46916;40.564;-7.958;2023-04-30T00:16:42;97816.44;;;18.00;69.88
61035;BME280;46916;40.564;-7.958;2023-04-30T00:18:43;97818.44;;;17.98;70.09
61035;BME280;46916;40.564;-7.958;2023-04-30T00:20:44;97817.94;;;17.94;70.09
61035;BME280;46916;40.564;-7.958;2023-04-30T00:22:45;97810.00;;;17.94;70.23
61035;BME280;46916;40.564;-7.958;2023-04-30T00:24:45;97807.53;;;17.93;70.20
61035;BME280;46916;40.564;-7.958;2023-04-30T00:26:46;97803.38;;;17.90;70.32
61035;BME280;46916;40.564;-7.958;2023-04-30T00:28:47;97809.00;;;17.87;70.51
61035;BME280;46916;40.564;-7.958;2023-04-30T00:30:48;97790.63;;;17.86;70.33
61035;BME280;46916;40.564;-7.958;2023-04-30T00:32:48;97786.16;;;17.86;70.41
61035;BME280;46916;40.564;-7.958;2023-04-30T00:34:49;97787.16;;;17.85;70.42
61035;BME280;46916;40.564;-7.958;2023-04-30T00:36:50;97782.00;;;17.83;70.41
61035;BME280;46916;40.564;-7.958;2023-04-30T00:38:51;97769.78;;;17.82;70.48
61035;BME280;46916;40.564;-7.958;2023-04-30T00:40:52;97773.41;;;17.81;70.74
61035;BME280;46916;40.564;-7.958;2023-04-30T00:42:53;97766.63;;;17.79;70.64
61035;BME280;46916;40.564;-7.958;2023-04-30T00:44:55;97769.78;;;17.74;70.86
61035;BME280;46916;40.564;-7.958;2023-04-30T00:46:55;97763.31;;;17.69;71.22
61035;BME280;46916;40.564;-7.958;2023-04-30T00:48:56;97757.00;;;17.70;71.12
61035;BME280;46916;40.564;-7.958;2023-04-30T00:50:57;97756.69;;;17.73;71.02
61035;BME280;46916;40.564;-7.958;2023-04-30T00:52:58;97766.28;;;17.74;71.07
61035;BME280;46916;40.564;-7.958;2023-04-30T00:54:59;97762.50;;;17.76;70.97
61035;BME280;46916;40.564;-7.958;2023-04-30T00:57:01;97759.69;;;17.78;70.78
61035;BME280;46916;40.564;-7.958;2023-04-30T00:59:02;97760.50;;;17.78;70.83
61035;BME280;46916;40.564;-7.958;2023-04-30T01:01:03;97756.03;;;17.79;70.81
61035;BME280;46916;40.564;-7.958;2023-04-30T01:03:04;97750.59;;;17.80;70.82
61035;BME280;46916;40.564;-7.958;2023-04-30T01:05:06;97754.88;;;17.81;70.74
61035;BME280;46916;40.564;-7.958;2023-04-30T01:07:07;97747.75;;;17.82;70.78
61035;BME280;46916;40.564;-7.958;2023-04-30T01:09:08;97751.22;;;17.82;70.71
61035;BME280;46916;40.564;-7.958;2023-04-30T01:11:20;97754.06;;;17.81;70.72
61035;BME280;46916;40.564;-7.958;2023-04-30T01:13:27;97754.38;;;17.78;70.71
61035;BME280;46916;40.564;-7.958;2023-04-30T01:17:45;97748.41;;;17.68;70.91
61035;BME280;46916;40.564;-7.958;2023-04-30T01:19:47;97744.59;;;17.62;71.12
61035;BME280;46916;40.564;-7.958;2023-04-30T01:21:49;97742.63;;;17.56;70.98
61035;BME280;46916;40.564;-7.958;2023-04-30T01:24:05;97737.16;;;17.49;70.96
61035;BME280;46916;40.564;-7.958;2023-04-30T01:28:26;97741.78;;;17.39;71.30
61035;BME280;46916;40.564;-7.958;2023-04-30T01:30:30;97740.47;;;17.35;71.27
61035;BME280;46916;40.564;-7.958;2023-04-30T01:32:31;97737.47;;;17.30;71.52
61035;BME280;46916;40.564;-7.958;2023-04-30T01:34:32;97742.25;;;17.26;71.53
61035;BME280;46916;40.564;-7.958;2023-04-30T01:39:30;97736.97;;;17.18;72.07
61035;BME280;46916;40.564;-7.958;2023-04-30T01:41:42;97750.38;;;17.17;72.02
61035;BME280;46916;40.564;-7.958;2023-04-30T01:44:01;97739.13;;;17.15;72.34
61035;BME280;46916;40.564;-7.958;2023-04-30T01:50:52;97722.06;;;17.17;72.21
61035;BME280;46916;40.564;-7.958;2023-04-30T01:52:55;97717.59;;;17.18;72.46
61035;BME280;46916;40.564;-7.958;2023-04-30T01:55:07;97717.97;;;17.15;72.47
61035;BME280;46916;40.564;-7.958;2023-04-30T01:57:22;97712.66;;;17.15;72.53
61035;BME280;46916;40.564;-7.958;2023-04-30T01:59:24;97702.91;;;17.15;72.84
61035;BME280;46916;40.564;-7.958;2023-04-30T02:01:28;97704.38;;;17.18;72.91
61035;BME280;46916;40.564;-7.958;2023-04-30T02:03:31;97700.75;;;17.19;73.02
61035;BME280;46916;40.564;-7.958;2023-04-30T02:05:32;97706.53;;;17.22;72.94
61035;BME280;46916;40.564;-7.958;2023-04-30T02:07:43;97701.72;;;17.26;72.93
61035;BME280;46916;40.564;-7.958;2023-04-30T02:09:44;97712.31;;;17.26;72.84
61035;BME280;46916;40.564;-7.958;2023-04-30T02:11:45;97712.50;;;17.24;72.78
61035;BME280;46916;40.564;-7.958;2023-04-30T02:13:46;97713.50;;;17.23;72.68
61035;BME280;46916;40.564;-7.958;2023-04-30T02:15:46;97718.94;;;17.22;72.68
61035;BME280;46916;40.564;-7.958;2023-04-30T02:17:47;97720.75;;;17.21;72.81
61035;BME280;46916;40.564;-7.958;2023-04-30T02:19:48;97716.47;;;17.20;72.91
61035;BME280;46916;40.564;-7.958;2023-04-30T02:21:49;97719.44;;;17.17;72.85
61035;BME280;46916;40.564;-7.958;2023-04-30T02:23:49;97716.28;;;17.14;72.95
61035;BME280;46916;40.564;-7.958;2023-04-30T02:25:50;97700.75;;;17.11;72.95
61035;BME280;46916;40.564;-7.958;2023-04-30T02:27:51;97694.13;;;17.06;73.11
61035;BME280;46916;40.564;-7.958;2023-04-30T02:29:52;97689.00;;;17.05;73.11
61035;BME280;46916;40.564;-7.958;2023-04-30T02:31:53;97694.78;;;17.00;73.05
61035;BME280;46916;40.564;-7.958;2023-04-30T02:33:53;97684.50;;;16.97;72.98
61035;BME280;46916;40.564;-7.958;2023-04-30T02:35:54;97682.22;;;16.94;73.05
61035;BME280;46916;40.564;-7.958;2023-04-30T02:37:55;97675.44;;;16.92;72.92
61035;BME280;46916;40.564;-7.958;2023-04-30T02:39:56;97666.81;;;16.90;72.84
61035;BME280;46916;40.564;-7.958;2023-04-30T02:41:56;97670.31;;;16.90;72.67
61035;BME280;46916;40.564;-7.958;2023-04-30T02:43:57;97667.16;;;16.87;72.91
61035;BME280;46916;40.564;-7.958;2023-04-30T02:45:58;97663.84;;;16.84;72.91
61035;BME280;46916;40.564;-7.958;2023-04-30T02:47:58;97663.50;;;16.88;73.08
61035;BME280;46916;40.564;-7.958;2023-04-30T02:49:59;97665.84;;;16.91;73.09
61035;BME280;46916;40.564;-7.958;2023-04-30T02:52:00;97672.59;;;16.93;73.31
61035;BME280;46916;40.564;-7.958;2023-04-30T02:54:01;97672.28;;;16.96;73.36
61035;BME280;46916;40.564;-7.958;2023-04-30T02:56:01;97666.66;;;16.99;73.35
61035;BME280;46916;40.564;-7.958;2023-04-30T02:58:02;97669.13;;;17.01;73.34
61035;BME280;46916;40.564;-7.958;2023-04-30T03:00:03;97667.50;;;17.00;73.12
61035;BME280;46916;40.564;-7.958;2023-04-30T03:02:06;97667.16;;;16.95;72.61
61035;BME280;46916;40.564;-7.958;2023-04-30T03:04:06;97667.97;;;16.87;72.66
61035;BME280;46916;40.564;-7.958;2023-04-30T03:06:08;97672.25;;;16.80;72.51
61035;BME280;46916;40.564;-7.958;2023-04-30T03:08:08;97666.63;;;16.75;72.44
61035;BME280;46916;40.564;-7.958;2023-04-30T03:10:09;97670.41;;;16.72;72.73
61035;BME280;46916;40.564;-7.958;2023-04-30T03:12:10;97675.03;;;16.70;73.03
61035;BME280;46916;40.564;-7.958;2023-04-30T03:14:11;97673.53;;;16.68;73.24
61035;BME280;46916;40.564;-7.958;2023-04-30T03:16:11;97668.56;;;16.65;73.29
61035;BME280;46916;40.564;-7.958;2023-04-30T03:18:12;97662.75;;;16.61;73.23
61035;BME280;46916;40.564;-7.958;2023-04-30T03:20:12;97662.28;;;16.57;73.18
61035;BME280;46916;40.564;-7.958;2023-04-30T03:22:13;97657.31;;;16.54;73.29
61035;BME280;46916;40.564;-7.958;2023-04-30T03:24:14;97663.25;;;16.56;73.27
61035;BME280;46916;40.564;-7.958;2023-04-30T03:26:15;97657.97;;;16.56;73.57
61035;BME280;46916;40.564;-7.958;2023-04-30T03:28:15;97662.75;;;16.53;73.66
61035;BME280;46916;40.564;-7.958;2023-04-30T03:30:16;97667.22;;;16.52;73.87
61035;BME280;46916;40.564;-7.958;2023-04-30T03:32:17;97656.97;;;16.49;73.62
61035;BME280;46916;40.564;-7.958;2023-04-30T03:34:18;97661.91;;;16.44;73.75
61035;BME280;46916;40.564;-7.958;2023-04-30T03:36:18;97661.56;;;16.39;73.85
61035;BME280;46916;40.564;-7.958;2023-04-30T03:38:19;97665.69;;;16.33;74.04
61035;BME280;46916;40.564;-7.958;2023-04-30T03:40:20;97665.69;;;16.33;73.87
61035;BME280;46916;40.564;-7.958;2023-04-30T03:42:21;97667.84;;;16.38;73.77
61035;BME280;46916;40.564;-7.958;2023-04-30T03:44:21;97667.53;;;16.41;73.38
61035;BME280;46916;40.564;-7.958;2023-04-30T03:46:22;97660.25;;;16.43;73.38
61035;BME280;46916;40.564;-7.958;2023-04-30T03:48:23;97659.59;;;16.41;73.48
61035;BME280;46916;40.564;-7.958;2023-04-30T03:50:24;97665.34;;;16.37;73.40
61035;BME280;46916;40.564;-7.958;2023-04-30T03:52:25;97663.03;;;16.33;73.52
61035;BME280;46916;40.564;-7.958;2023-04-30T03:54:27;97658.41;;;16.35;73.55
61035;BME280;46916;40.564;-7.958;2023-04-30T03:56:28;97653.78;;;16.29;73.32
61035;BME280;46916;40.564;-7.958;2023-04-30T03:58:29;97649.44;;;16.20;73.86
61035;BME280;46916;40.564;-7.958;2023-04-30T04:00:30;97645.97;;;16.20;73.66
61035;BME280;46916;40.564;-7.958;2023-04-30T04:02:31;97640.69;;;16.20;73.89
61035;BME280;46916;40.564;-7.958;2023-04-30T04:04:32;97650.94;;;16.23;73.33
61035;BME280;46916;40.564;-7.958;2023-04-30T04:06:33;97652.59;;;16.24;72.91
61035;BME280;46916;40.564;-7.958;2023-04-30T04:08:34;97649.28;;;16.22;72.76
61035;BME280;46916;40.564;-7.958;2023-04-30T04:10:36;97657.69;;;16.17;72.59
61035;BME280;46916;40.564;-7.958;2023-04-30T04:12:37;97661.66;;;16.13;72.85
61035;BME280;46916;40.564;-7.958;2023-04-30T04:14:38;97655.84;;;16.09;72.89
61035;BME280;46916;40.564;-7.958;2023-04-30T04:16:39;97650.69;;;16.08;73.15
61035;BME280;46916;40.564;-7.958;2023-04-30T04:18:39;97640.31;;;16.06;73.41
61035;BME280;46916;40.564;-7.958;2023-04-30T04:20:40;97637.66;;;16.06;73.49
61035;BME280;46916;40.564;-7.958;2023-04-30T04:22:41;97629.56;;;16.08;73.40
61035;BME280;46916;40.564;-7.958;2023-04-30T04:24:42;97639.31;;;16.07;73.54
61035;BME280;46916;40.564;-7.958;2023-04-30T04:26:45;97636.84;;;16.06;73.54
61035;BME280;46916;40.564;-7.958;2023-04-30T04:28:46;97639.47;;;16.06;73.56
61035;BME280;46916;40.564;-7.958;2023-04-30T04:30:48;97635.72;;;16.08;73.39
61035;BME280;46916;40.564;-7.958;2023-04-30T04:32:48;97635.72;;;16.08;73.18
61035;BME280;46916;40.564;-7.958;2023-04-30T04:34:53;97623.47;;;16.07;72.97
61035;BME280;46916;40.564;-7.958;2023-04-30T04:36:54;97626.78;;;16.09;72.93
61035;BME280;46916;40.564;-7.958;2023-04-30T04:38:56;97630.06;;;16.12;73.08
61035;BME280;46916;40.564;-7.958;2023-04-30T04:40:57;97636.34;;;16.10;73.03
61035;BME280;46916;40.564;-7.958;2023-04-30T04:42:59;97636.34;;;16.10;72.95
61035;BME280;46916;40.564;-7.958;2023-04-30T04:44:59;97644.59;;;16.07;73.04
61035;BME280;46916;40.564;-7.958;2023-04-30T04:47:00;97643.94;;;16.05;73.07
61035;BME280;46916;40.564;-7.958;2023-04-30T04:49:04;97646.91;;;16.02;73.25
61035;BME280;46916;40.564;-7.958;2023-04-30T04:51:05;97654.81;;;16.02;73.57
61035;BME280;46916;40.564;-7.958;2023-04-30T04:53:06;97651.34;;;16.02;73.46
61035;BME280;46916;40.564;-7.958;2023-04-30T04:55:07;97643.72;;;15.99;73.14
61035;BME280;46916;40.564;-7.958;2023-04-30T04:57:08;97650.00;;;15.98;73.45
61035;BME280;46916;40.564;-7.958;2023-04-30T04:59:08;97651.81;;;15.97;73.20
61035;BME280;46916;40.564;-7.958;2023-04-30T05:01:09;97648.38;;;15.97;73.08
61035;BME280;46916;40.564;-7.958;2023-04-30T05:03:10;97642.25;;;15.96;73.29
61035;BME280;46916;40.564;-7.958;2023-04-30T05:05:11;97666.16;;;15.95;73.21
61035;BME280;46916;40.564;-7.958;2023-04-30T05:07:12;97653.97;;;15.94;73.14
61035;BME280;46916;40.564;-7.958;2023-04-30T05:09:12;97655.44;;;15.88;73.42
61035;BME280;46916;40.564;-7.958;2023-04-30T05:11:14;97653.09;;;15.85;73.21
61035;BME280;46916;40.564;-7.958;2023-04-30T05:13:14;97647.81;;;15.85;73.33
61035;BME280;46916;40.564;-7.958;2023-04-30T05:15:15;97662.66;;;15.86;73.59
61035;BME280;46916;40.564;-7.958;2023-04-30T05:17:16;97662.16;;;15.82;74.04
61035;BME280;46916;40.564;-7.958;2023-04-30T05:19:16;97666.28;;;15.85;74.23
61035;BME280;46916;40.564;-7.958;2023-04-30T05:21:17;97661.63;;;15.79;74.15
61035;BME280;46916;40.564;-7.958;2023-04-30T05:23:18;97661.97;;;15.76;74.55
61035;BME280;46916;40.564;-7.958;2023-04-30T05:25:18;97652.84;;;15.70;74.39
61035;BME280;46916;40.564;-7.958;2023-04-30T05:27:19;97660.63;;;15.72;74.51
61035;BME280;46916;40.564;-7.958;2023-04-30T05:29:20;97668.06;;;15.76;74.54
61035;BME280;46916;40.564;-7.958;2023-04-30T05:31:21;97671.88;;;15.82;74.65
61035;BME280;46916;40.564;-7.958;2023-04-30T05:33:21;97673.91;;;15.88;74.60
61035;BME280;46916;40.564;-7.958;2023-04-30T05:35:22;97670.78;;;15.93;74.22
61035;BME280;46916;40.564;-7.958;2023-04-30T05:37:23;97662.88;;;15.93;74.32
61035;BME280;46916;40.564;-7.958;2023-04-30T05:39:24;97670.63;;;15.94;74.34
61035;BME280;46916;40.564;-7.958;2023-04-30T05:41:24;97670.31;;;15.97;74.19
61035;BME280;46916;40.564;-7.958;2023-04-30T05:43:25;97669.84;;;16.02;74.28
61035;BME280;46916;40.564;-7.958;2023-04-30T05:45:26;97670.50;;;16.04;74.49
61035;BME280;46916;40.564;-7.958;2023-04-30T05:47:27;97676.16;;;16.09;74.42
61035;BME280;46916;40.564;-7.958;2023-04-30T05:49:28;97676.97;;;16.09;74.43
61035;BME280;46916;40.564;-7.958;2023-04-30T05:51:28;97675.00;;;16.12;74.35
61035;BME280;46916;40.564;-7.958;2023-04-30T05:53:30;97671.69;;;16.09;73.99
61035;BME280;46916;40.564;-7.958;2023-04-30T05:55:31;97675.47;;;16.07;74.09
61035;BME280;46916;40.564;-7.958;2023-04-30T05:57:31;97682.75;;;16.05;74.01
61035;BME280;46916;40.564;-7.958;2023-04-30T05:59:32;97692.50;;;16.04;74.02
61035;BME280;46916;40.564;-7.958;2023-04-30T06:01:33;97690.81;;;16.03;73.71
61035;BME280;46916;40.564;-7.958;2023-04-30T06:03:34;97688.63;;;15.99;73.73
61035;BME280;46916;40.564;-7.958;2023-04-30T06:05:34;97702.31;;;15.94;73.54
61035;BME280;46916;40.564;-7.958;2023-04-30T06:07:35;97711.84;;;15.87;73.61
61035;BME280;46916;40.564;-7.958;2023-04-30T06:09:36;97713.31;;;15.81;73.70
61035;BME280;46916;40.564;-7.958;2023-04-30T06:11:37;97710.16;;;15.78;73.81
61035;BME280;46916;40.564;-7.958;2023-04-30T06:13:38;97712.97;;;15.76;73.88
61035;BME280;46916;40.564;-7.958;2023-04-30T06:15:39;97712.13;;;15.76;74.07
61035;BME280;46916;40.564;-7.958;2023-04-30T06:17:40;97712.28;;;15.74;74.23
61035;BME280;46916;40.564;-7.958;2023-04-30T06:19:41;97712.56;;;15.71;74.22
61035;BME280;46916;40.564;-7.958;2023-04-30T06:21:42;97708.97;;;15.72;74.52
61035;BME280;46916;40.564;-7.958;2023-04-30T06:23:43;97718.38;;;15.75;74.76
61035;BME280;46916;40.564;-7.958;2023-04-30T06:25:43;97724.88;;;15.80;74.38
61035;BME280;46916;40.564;-7.958;2023-04-30T06:27:44;97729.97;;;15.82;74.60
61035;BME280;46916;40.564;-7.958;2023-04-30T06:29:45;97724.69;;;15.82;74.27
61035;BME280;46916;40.564;-7.958;2023-04-30T06:31:46;97732.47;;;15.83;74.20
61035;BME280;46916;40.564;-7.958;2023-04-30T06:33:46;97728.34;;;15.81;73.91
61035;BME280;46916;40.564;-7.958;2023-04-30T06:35:47;97732.28;;;15.77;74.00
61035;BME280;46916;40.564;-7.958;2023-04-30T06:37:50;97735.91;;;15.76;74.24
61035;BME280;46916;40.564;-7.958;2023-04-30T06:39:50;97732.78;;;15.80;74.31
61035;BME280;46916;40.564;-7.958;2023-04-30T06:41:51;97728.69;;;15.86;74.60
61035;BME280;46916;40.564;-7.958;2023-04-30T06:43:52;97726.56;;;15.90;74.58
61035;BME280;46916;40.564;-7.958;2023-04-30T06:45:52;97732.22;;;15.95;74.49
61035;BME280;46916;40.564;-7.958;2023-04-30T06:47:53;97732.72;;;15.98;74.59
61035;BME280;46916;40.564;-7.958;2023-04-30T06:49:54;97741.16;;;16.02;74.56
61035;BME280;46916;40.564;-7.958;2023-04-30T06:51:54;97759.19;;;16.06;74.66
61035;BME280;46916;40.564;-7.958;2023-04-30T06:53:57;97756.84;;;16.03;74.22
61035;BME280;46916;40.564;-7.958;2023-04-30T06:55:58;97759.31;;;15.97;73.87
61035;BME280;46916;40.564;-7.958;2023-04-30T06:57:59;97769.97;;;15.87;73.93
61035;BME280;46916;40.564;-7.958;2023-04-30T06:59:59;97756.09;;;15.85;73.65
61035;BME280;46916;40.564;-7.958;2023-04-30T07:02:01;97765.78;;;15.76;73.47
61035;BME280;46916;40.564;-7.958;2023-04-30T07:04:02;97757.69;;;15.60;73.60
61035;BME280;46916;40.564;-7.958;2023-04-30T07:06:03;97763.88;;;15.51;73.92
61035;BME280;46916;40.564;-7.958;2023-04-30T07:08:04;97767.72;;;15.39;74.07
61035;BME280;46916;40.564;-7.958;2023-04-30T07:10:06;97760.59;;;15.31;74.22
61035;BME280;46916;40.564;-7.958;2023-04-30T07:12:07;97762.53;;;15.29;74.00
61035;BME280;46916;40.564;-7.958;2023-04-30T07:14:08;97763.47;;;15.20;74.80
61035;BME280;46916;40.564;-7.958;2023-04-30T07:16:08;97750.72;;;15.15;75.04
61035;BME280;46916;40.564;-7.958;2023-04-30T07:18:10;97756.81;;;15.16;75.00
61035;BME280;46916;40.564;-7.958;2023-04-30T07:20:11;97748.91;;;15.16;75.06
61035;BME280;46916;40.564;-7.958;2023-04-30T07:22:13;97754.38;;;15.22;75.26
61035;BME280;46916;40.564;-7.958;2023-04-30T07:24:14;97752.81;;;15.29;75.70
61035;BME280;46916;40.564;-7.958;2023-04-30T07:26:15;97759.00;;;15.38;75.42
61035;BME280;46916;40.564;-7.958;2023-04-30T07:28:16;97762.63;;;15.37;76.00
61035;BME280;46916;40.564;-7.958;2023-04-30T07:30:16;97764.88;;;15.32;76.00
61035;BME280;46916;40.564;-7.958;2023-04-30T07:32:17;97765.19;;;15.29;76.24
61035;BME280;46916;40.564;-7.958;2023-04-30T07:34:17;97770.63;;;15.27;77.07
61035;BME280;46916;40.564;-7.958;2023-04-30T07:36:18;97769.34;;;15.31;76.46
61035;BME280;46916;40.564;-7.958;2023-04-30T07:38:19;97771.22;;;15.39;76.22
61035;BME280;46916;40.564;-7.958;2023-04-30T07:40:21;97772.06;;;15.40;76.91
61035;BME280;46916;40.564;-7.958;2023-04-30T07:42:21;97776.19;;;15.42;77.28
61035;BME280;46916;40.564;-7.958;2023-04-30T07:44:22;97777.31;;;15.40;77.21
61035;BME280;46916;40.564;-7.958;2023-04-30T07:46:23;97768.41;;;15.41;77.93
61035;BME280;46916;40.564;-7.958;2023-04-30T07:48:25;97774.75;;;15.48;77.64
61035;BME280;46916;40.564;-7.958;2023-04-30T07:50:25;97770.22;;;15.58;77.51
61035;BME280;46916;40.564;-7.958;2023-04-30T07:52:28;97771.44;;;15.64;77.36
61035;BME280;46916;40.564;-7.958;2023-04-30T07:54:28;97773.47;;;15.70;77.29
61035;BME280;46916;40.564;-7.958;2023-04-30T07:56:29;97770.88;;;15.78;76.87
61035;BME280;46916;40.564;-7.958;2023-04-30T07:58:30;97769.13;;;15.87;77.09
61035;BME280;46916;40.564;-7.958;2023-04-30T08:00:30;97775.28;;;15.95;76.57
61035;BME280;46916;40.564;-7.958;2023-04-30T08:02:32;97770.41;;;16.00;76.84
61035;BME280;46916;40.564;-7.958;2023-04-30T08:04:33;97778.00;;;16.03;76.76
61035;BME280;46916;40.564;-7.958;2023-04-30T08:06:34;97770.28;;;16.10;76.77
61035;BME280;46916;40.564;-7.958;2023-04-30T08:08:34;97773.78;;;16.19;76.63
61035;BME280;46916;40.564;-7.958;2023-04-30T08:10:35;97773.19;;;16.25;76.26
61035;BME280;46916;40.564;-7.958;2023-04-30T08:12:37;97760.16;;;16.31;76.31
61035;BME280;46916;40.564;-7.958;2023-04-30T08:14:37;97761.34;;;16.37;76.01
61035;BME280;46916;40.564;-7.958;2023-04-30T08:16:38;97756.25;;;16.44;75.81
61035;BME280;46916;40.564;-7.958;2023-04-30T08:18:39;97763.69;;;16.48;75.36
61035;BME280;46916;40.564;-7.958;2023-04-30T08:20:43;97756.44;;;16.50;75.16
61035;BME280;46916;40.564;-7.958;2023-04-30T08:22:45;97754.97;;;16.56;75.12
61035;BME280;46916;40.564;-7.958;2023-04-30T08:24:46;97758.44;;;16.56;75.13
61035;BME280;46916;40.564;-7.958;2023-04-30T08:26:46;97760.78;;;16.59;75.10
61035;BME280;46916;40.564;-7.958;2023-04-30T08:28:47;97759.47;;;16.64;74.97
61035;BME280;46916;40.564;-7.958;2023-04-30T08:30:48;97748.56;;;16.67;75.14
61035;BME280;46916;40.564;-7.958;2023-04-30T08:32:49;97750.06;;;16.69;75.29
61035;BME280;46916;40.564;-7.958;2023-04-30T08:34:50;97747.09;;;16.72;75.46
61035;BME280;46916;40.564;-7.958;2023-04-30T08:36:52;97747.47;;;16.77;75.57
61035;BME280;46916;40.564;-7.958;2023-04-30T08:38:53;97746.31;;;16.80;75.57
61035;BME280;46916;40.564;-7.958;2023-04-30T08:41:21;97746.00;;;16.83;75.65
61035;BME280;46916;40.564;-7.958;2023-04-30T08:43:25;97752.78;;;16.86;75.60
61035;BME280;46916;40.564;-7.958;2023-04-30T08:45:26;97748.34;;;16.86;75.63
61035;BME280;46916;40.564;-7.958;2023-04-30T08:47:27;97749.31;;;16.85;75.72
61035;BME280;46916;40.564;-7.958;2023-04-30T08:49:27;97745.50;;;16.79;76.56
61035;BME280;46916;40.564;-7.958;2023-04-30T08:51:32;97751.94;;;16.77;76.21
61035;BME280;46916;40.564;-7.958;2023-04-30T08:53:35;97747.94;;;16.73;76.77
61035;BME280;46916;40.564;-7.958;2023-04-30T08:55:39;97742.66;;;16.73;76.81
61035;BME280;46916;40.564;-7.958;2023-04-30T08:57:40;97736.41;;;16.74;76.54
61035;BME280;46916;40.564;-7.958;2023-04-30T08:59:44;97738.88;;;16.75;76.59
61035;BME280;46916;40.564;-7.958;2023-04-30T09:01:46;97739.53;;;16.77;76.63
61035;BME280;46916;40.564;-7.958;2023-04-30T09:03:47;97735.44;;;16.83;76.42
61035;BME280;46916;40.564;-7.958;2023-04-30T09:05:47;97738.41;;;16.88;76.23
61035;BME280;46916;40.564;-7.958;2023-04-30T09:07:48;97734.78;;;16.97;75.84
61035;BME280;46916;40.564;-7.958;2023-04-30T09:09:51;97735.78;;;17.04;75.73
61035;BME280;46916;40.564;-7.958;2023-04-30T09:11:52;97735.81;;;17.13;75.30
61035;BME280;46916;40.564;-7.958;2023-04-30T09:13:55;97732.50;;;17.11;75.50
61035;BME280;46916;40.564;-7.958;2023-04-30T09:15:58;97721.75;;;17.12;75.57
61035;BME280;46916;40.564;-7.958;2023-04-30T09:18:12;97722.41;;;17.14;75.96
61035;BME280;46916;40.564;-7.958;2023-04-30T09:20:15;97721.94;;;17.19;75.86
61035;BME280;46916;40.564;-7.958;2023-04-30T09:22:22;97717.47;;;17.27;75.70
61035;BME280;46916;40.564;-7.958;2023-04-30T09:24:23;97713.31;;;17.33;75.74
61035;BME280;46916;40.564;-7.958;2023-04-30T09:26:37;97717.63;;;17.34;76.02
61035;BME280;46916;40.564;-7.958;2023-04-30T09:28:53;97711.34;;;17.35;75.72
61035;BME280;46916;40.564;-7.958;2023-04-30T09:30:57;97719.94;;;17.37;75.85
61035;BME280;46916;40.564;-7.958;2023-04-30T09:32:58;97721.59;;;17.38;76.11
61035;BME280;46916;40.564;-7.958;2023-04-30T09:34:58;97720.94;;;17.44;76.15
61035;BME280;46916;40.564;-7.958;2023-04-30T09:36:59;97720.25;;;17.50;76.08
61035;BME280;46916;40.564;-7.958;2023-04-30T09:39:09;97724.59;;;17.60;75.86
61035;BME280;46916;40.564;-7.958;2023-04-30T09:41:27;97725.41;;;17.60;75.93
61035;BME280;46916;40.564;-7.958;2023-04-30T09:43:28;97722.41;;;17.63;75.75
61035;BME280;46916;40.564;-7.958;2023-04-30T09:45:46;97729.50;;;17.71;75.41
61035;BME280;46916;40.564;-7.958;2023-04-30T09:47:51;97722.41;;;17.79;75.18
61035;BME280;46916;40.564;-7.958;2023-04-30T09:49:52;97721.94;;;17.84;74.91
61035;BME280;46916;40.564;-7.958;2023-04-30T09:51:57;97721.75;;;17.86;74.87
61035;BME280;46916;40.564;-7.958;2023-04-30T09:54:02;97725.91;;;17.88;74.93
61035;BME280;46916;40.564;-7.958;2023-04-30T09:56:06;97722.88;;;17.91;74.82
61035;BME280;46916;40.564;-7.958;2023-04-30T09:58:09;97728.53;;;17.96;74.76
61035;BME280;46916;40.564;-7.958;2023-04-30T10:00:10;97713.94;;;18.00;74.85
61035;BME280;46916;40.564;-7.958;2023-04-30T10:02:15;97723.03;;;18.06;74.71
61035;BME280;46916;40.564;-7.958;2023-04-30T10:04:16;97719.03;;;18.10;74.68
61035;BME280;46916;40.564;-7.958;2023-04-30T10:06:20;97717.53;;;18.16;74.56
61035;BME280;46916;40.564;-7.958;2023-04-30T10:08:26;97723.31;;;18.19;74.31
61035;BME280;46916;40.564;-7.958;2023-04-30T10:10:28;97719.81;;;18.27;74.09
61035;BME280;46916;40.564;-7.958;2023-04-30T10:12:38;97715.16;;;18.37;73.87
61035;BME280;46916;40.564;-7.958;2023-04-30T10:14:51;97721.75;;;18.41;73.46
61035;BME280;46916;40.564;-7.958;2023-04-30T10:16:57;97711.63;;;18.45;73.50
61035;BME280;46916;40.564;-7.958;2023-04-30T10:19:03;97717.88;;;18.52;73.10
61035;BME280;46916;40.564;-7.958;2023-04-30T10:21:08;97705.78;;;18.58;72.42
61035;BME280;46916;40.564;-7.958;2023-04-30T10:23:13;97715.69;;;18.64;70.43
61035;BME280;46916;40.564;-7.958;2023-04-30T10:25:15;97719.63;;;18.68;70.14
61035;BME280;46916;40.564;-7.958;2023-04-30T10:27:16;97712.00;;;18.73;70.69
61035;BME280;46916;40.564;-7.958;2023-04-30T10:29:17;97707.84;;;18.78;70.11
61035;BME280;46916;40.564;-7.958;2023-04-30T10:31:18;97703.19;;;18.80;68.58
61035;BME280;46916;40.564;-7.958;2023-04-30T10:35:58;97698.91;;;19.02;66.50
61035;BME280;46916;40.564;-7.958;2023-04-30T10:38:09;97690.03;;;19.10;66.85
61035;BME280;46916;40.564;-7.958;2023-04-30T10:40:12;97699.91;;;19.24;65.73
61035;BME280;46916;40.564;-7.958;2023-04-30T10:42:14;97691.47;;;19.21;65.42
61035;BME280;46916;40.564;-7.958;2023-04-30T10:44:20;97687.72;;;19.30;65.80
61035;BME280;46916;40.564;-7.958;2023-04-30T10:46:22;97682.25;;;19.32;65.68
61035;BME280;46916;40.564;-7.958;2023-04-30T10:48:23;97679.41;;;19.33;65.56
61035;BME280;46916;40.564;-7.958;2023-04-30T10:50:25;97686.84;;;19.38;65.62
61035;BME280;46916;40.564;-7.958;2023-04-30T10:52:26;97686.59;;;19.47;65.29